Pagina principale
METAR-TAF:

METAR-TAF

Aeroporti :

Dübendorf, Svizzera

latitudine: 47-23-55N, longitudine: 8-38-53E, altezza: 448 m

Osservazione

Il bollettino è stato emesso 33 minuti fa, alle 18:20 UTC
Vento 5 kt da sud, variando fra sud-est e sud/sud-ovest
Temperature 10°C
Umidità 57%
Pressione 1017 hPa
Visibilità 10 km o più

METAR: LSMD 161820Z AUTO 18005KT 140V210 9999NDV NCD 10/02 Q1017 RMK

Ora: 19:53 (18:53 UTC)


TAF: mancante

Osservazioni e previsioni meteorologiche di più di 4000 aeroporti (messaggi METAR e TAF).

Le stazioni disponibili sono rappresentate dai dischi gialli e rossi sulla carta.

Puntare il mouse per vedere il nome della stazione.

Clicca sopra per visualizzare le osservazioni e previsioni meteorologiche.

Per cambiare la mappa : fare clic sui pulsanti verdi con una croce nera per ingrandire, il pulsante verde con un trattino per diminuire, o sulla freccia verde per le mappe adiacenti.


METAR-TAF: